sensor_id;sensor_type;location;lat;lon;timestamp;pressure;altitude;pressure_sealevel;temperature;humidity
31096;BME280;17749;51.962;8.560;2023-03-05T06:01:28;100142.28;;;2.53;100.00
31096;BME280;17749;51.962;8.560;2023-03-05T06:03:59;100135.28;;;2.49;100.00
31096;BME280;17749;51.962;8.560;2023-03-05T06:06:27;100137.91;;;2.49;100.00
31096;BME280;17749;51.962;8.560;2023-03-05T06:08:57;100143.19;;;2.52;100.00
31096;BME280;17749;51.962;8.560;2023-03-05T06:11:27;100132.66;;;2.50;100.00
31096;BME280;17749;51.962;8.560;2023-03-05T06:14:03;100132.66;;;2.50;100.00
31096;BME280;17749;51.962;8.560;2023-03-05T06:16:37;100135.28;;;2.49;100.00
31096;BME280;17749;51.962;8.560;2023-03-05T06:19:11;100120.41;;;2.46;100.00
31096;BME280;17749;51.962;8.560;2023-03-05T06:21:44;100123.03;;;2.46;100.00
31096;BME280;17749;51.962;8.560;2023-03-05T06:24:15;100126.56;;;2.45;100.00
31096;BME280;17749;51.962;8.560;2023-03-05T06:26:44;100131.81;;;2.50;100.00
31096;BME280;17749;51.962;8.560;2023-03-05T06:29:14;100131.78;;;2.51;100.00
31096;BME280;17749;51.962;8.560;2023-03-05T06:31:45;100132.66;;;2.50;100.00
31096;BME280;17749;51.962;8.560;2023-03-05T06:34:15;100146.66;;;2.55;100.00
31096;BME280;17749;51.962;8.560;2023-03-05T06:36:44;100130.94;;;2.49;100.00
31096;BME280;17749;51.962;8.560;2023-03-05T06:39:13;100125.69;;;2.49;100.00
31096;BME280;17749;51.962;8.560;2023-03-05T06:41:50;100121.25;;;2.51;100.00
31096;BME280;17749;51.962;8.560;2023-03-05T06:44:20;100128.25;;;2.54;100.00
31096;BME280;17749;51.962;8.560;2023-03-05T06:46:51;100123.88;;;2.51;100.00
31096;BME280;17749;51.962;8.560;2023-03-05T06:49:18;100122.13;;;2.53;100.00
31096;BME280;17749;51.962;8.560;2023-03-05T06:51:47;100118.66;;;2.48;100.00
31096;BME280;17749;51.962;8.560;2023-03-05T06:54:18;100115.16;;;2.49;100.00
31096;BME280;17749;51.962;8.560;2023-03-05T06:56:47;100118.63;;;2.54;100.00
31096;BME280;17749;51.962;8.560;2023-03-05T06:59:16;100114.25;;;2.53;100.00
31096;BME280;17749;51.962;8.560;2023-03-05T07:01:43;100121.19;;;2.59;100.00
31096;BME280;17749;51.962;8.560;2023-03-05T07:04:14;100120.34;;;2.60;100.00
31096;BME280;17749;51.962;8.560;2023-03-05T07:06:44;100116.84;;;2.56;100.00
31096;BME280;17749;51.962;8.560;2023-03-05T07:09:15;100105.44;;;2.59;100.00
31096;BME280;17749;51.962;8.560;2023-03-05T07:11:42;100113.28;;;2.63;100.00
31096;BME280;17749;51.962;8.560;2023-03-05T07:14:12;100115.03;;;2.68;100.00
31096;BME280;17749;51.962;8.560;2023-03-05T07:16:43;100104.50;;;2.66;100.00
31096;BME280;17749;51.962;8.560;2023-03-05T07:19:10;100118.50;;;2.73;100.00
31096;BME280;17749;51.962;8.560;2023-03-05T07:21:40;100105.34;;;2.70;100.00
31096;BME280;17749;51.962;8.560;2023-03-05T07:24:11;100109.72;;;2.74;100.00
31096;BME280;17749;51.962;8.560;2023-03-05T07:26:38;100106.22;;;2.72;100.00
31096;BME280;17749;51.962;8.560;2023-03-05T07:29:08;100108.84;;;2.72;100.00
31096;BME280;17749;51.962;8.560;2023-03-05T07:31:37;100107.06;;;2.72;100.00
31096;BME280;17749;51.962;8.560;2023-03-05T07:34:08;100102.66;;;2.79;100.00
31096;BME280;17749;51.962;8.560;2023-03-05T07:36:38;100101.75;;;2.80;100.00
31096;BME280;17749;51.962;8.560;2023-03-05T07:39:09;100103.47;;;2.82;100.00
31096;BME280;17749;51.962;8.560;2023-03-05T07:41:44;100099.13;;;2.83;100.00
31096;BME280;17749;51.962;8.560;2023-03-05T07:44:39;100099.94;;;2.88;100.00
31096;BME280;17749;51.962;8.560;2023-03-05T07:47:06;100098.16;;;2.92;100.00
31096;BME280;17749;51.962;8.560;2023-03-05T07:49:33;100101.66;;;2.91;100.00
31096;BME280;17749;51.962;8.560;2023-03-05T07:52:01;100095.50;;;2.93;100.00
31096;BME280;17749;51.962;8.560;2023-03-05T07:54:30;100095.50;;;2.96;100.00
31096;BME280;17749;51.962;8.560;2023-03-05T07:56:57;100096.31;;;2.98;100.00
31096;BME280;17749;51.962;8.560;2023-03-05T07:59:24;100082.38;;;2.92;100.00
31096;BME280;17749;51.962;8.560;2023-03-05T08:01:52;100100.72;;;2.99;100.00
31096;BME280;17749;51.962;8.560;2023-03-05T08:04:19;100084.97;;;2.93;100.00
31096;BME280;17749;51.962;8.560;2023-03-05T08:06:52;100083.19;;;2.98;100.00
31096;BME280;17749;51.962;8.560;2023-03-05T08:09:19;100072.66;;;3.01;100.00
31096;BME280;17749;51.962;8.560;2023-03-05T08:11:46;100075.25;;;3.04;100.00
31096;BME280;17749;51.962;8.560;2023-03-05T08:14:16;100075.22;;;3.07;100.00
31096;BME280;17749;51.962;8.560;2023-03-05T08:16:43;100076.94;;;3.10;100.00
31096;BME280;17749;51.962;8.560;2023-03-05T08:19:13;100070.78;;;3.13;100.00
31096;BME280;17749;51.962;8.560;2023-03-05T08:21:40;100071.63;;;3.12;100.00
31096;BME280;17749;51.962;8.560;2023-03-05T08:24:23;100066.38;;;3.12;100.00
31096;BME280;17749;51.962;8.560;2023-03-05T08:26:56;100069.00;;;3.12;100.00
31096;BME280;17749;51.962;8.560;2023-03-05T08:29:24;100076.81;;;3.19;100.00
31096;BME280;17749;51.962;8.560;2023-03-05T08:31:52;100065.47;;;3.16;100.00
31096;BME280;17749;51.962;8.560;2023-03-05T08:34:20;100068.09;;;3.17;100.00
31096;BME280;17749;51.962;8.560;2023-03-05T08:36:47;100060.22;;;3.16;100.00
31096;BME280;17749;51.962;8.560;2023-03-05T08:39:15;100075.97;;;3.19;100.00
31096;BME280;17749;51.962;8.560;2023-03-05T08:41:44;100068.94;;;3.21;100.00
31096;BME280;17749;51.962;8.560;2023-03-05T08:44:18;100056.59;;;3.24;100.00
31096;BME280;17749;51.962;8.560;2023-03-05T08:46:45;100064.44;;;3.31;100.00
31096;BME280;17749;51.962;8.560;2023-03-05T08:49:20;100059.09;;;3.35;100.00
31096;BME280;17749;51.962;8.560;2023-03-05T08:51:48;100044.13;;;3.40;100.00
31096;BME280;17749;51.962;8.560;2023-03-05T08:54:16;100052.03;;;3.43;100.00
31096;BME280;17749;51.962;8.560;2023-03-05T08:56:43;100056.25;;;3.54;100.00
31096;BME280;17749;51.962;8.560;2023-03-05T08:59:13;100054.47;;;3.56;100.00
31096;BME280;17749;51.962;8.560;2023-03-05T09:01:40;100044.81;;;3.56;100.00
31096;BME280;17749;51.962;8.560;2023-03-05T09:04:10;100052.69;;;3.59;100.00
31096;BME280;17749;51.962;8.560;2023-03-05T09:06:42;100048.25;;;3.64;100.00
31096;BME280;17749;51.962;8.560;2023-03-05T09:09:12;100049.88;;;3.71;100.00
31096;BME280;17749;51.962;8.560;2023-03-05T09:11:40;100039.34;;;3.73;100.00
31096;BME280;17749;51.962;8.560;2023-03-05T09:14:11;100048.94;;;3.77;100.00
31096;BME280;17749;51.962;8.560;2023-03-05T09:16:45;100052.44;;;3.79;100.00
31096;BME280;17749;51.962;8.560;2023-03-05T09:19:15;100047.16;;;3.79;100.00
31096;BME280;17749;51.962;8.560;2023-03-05T09:21:42;100040.94;;;3.85;100.00
31096;BME280;17749;51.962;8.560;2023-03-05T09:24:09;100047.91;;;3.89;100.00
31096;BME280;17749;51.962;8.560;2023-03-05T09:26:41;100047.00;;;3.91;100.00
31096;BME280;17749;51.962;8.560;2023-03-05T09:29:11;100036.63;;;3.79;100.00
31096;BME280;17749;51.962;8.560;2023-03-05T09:31:43;100042.75;;;3.81;100.00
31096;BME280;17749;51.962;8.560;2023-03-05T09:34:11;100041.81;;;3.85;100.00
31096;BME280;17749;51.962;8.560;2023-03-05T09:36:41;100039.22;;;3.82;100.00
31096;BME280;17749;51.962;8.560;2023-03-05T09:39:10;100035.66;;;3.85;100.00
31096;BME280;17749;51.962;8.560;2023-03-05T09:42:34;100032.97;;;3.89;100.00
31096;BME280;17749;51.962;8.560;2023-03-05T09:45:11;100033.81;;;3.91;100.00
31096;BME280;17749;51.962;8.560;2023-03-05T09:47:55;100039.09;;;3.90;100.00
31096;BME280;17749;51.962;8.560;2023-03-05T09:50:29;100031.16;;;3.94;100.00
31096;BME280;17749;51.962;8.560;2023-03-05T09:53:14;100017.91;;;3.98;100.00
31096;BME280;17749;51.962;8.560;2023-03-05T09:55:54;100022.13;;;4.11;100.00
31096;BME280;17749;51.962;8.560;2023-03-05T09:58:53;100020.38;;;4.10;100.00
31096;BME280;17749;51.962;8.560;2023-03-05T10:01:36;100008.06;;;4.12;100.00
31096;BME280;17749;51.962;8.560;2023-03-05T10:04:18;100008.00;;;4.15;100.00
31096;BME280;17749;51.962;8.560;2023-03-05T10:07:04;100003.56;;;4.18;100.00
31096;BME280;17749;51.962;8.560;2023-03-05T10:10:01;100011.44;;;4.20;100.00
31096;BME280;17749;51.962;8.560;2023-03-05T10:12:45;100004.34;;;4.25;100.00
31096;BME280;17749;51.962;8.560;2023-03-05T10:15:40;100006.72;;;4.41;100.00
31096;BME280;17749;51.962;8.560;2023-03-05T10:21:13;99999.44;;;4.56;100.00
31096;BME280;17749;51.962;8.560;2023-03-05T10:26:26;100000.47;;;4.46;100.00
31096;BME280;17749;51.962;8.560;2023-03-05T10:32:25;99998.59;;;4.53;100.00
31096;BME280;17749;51.962;8.560;2023-03-05T10:35:15;99982.69;;;4.59;100.00
31096;BME280;17749;51.962;8.560;2023-03-05T10:43:12;99987.19;;;4.52;100.00
31096;BME280;17749;51.962;8.560;2023-03-05T10:45:47;99979.31;;;4.51;100.00
31096;BME280;17749;51.962;8.560;2023-03-05T10:51:36;99970.97;;;4.74;100.00
31096;BME280;17749;51.962;8.560;2023-03-05T10:54:33;99971.06;;;4.69;100.00
31096;BME280;17749;51.962;8.560;2023-03-05T10:57:29;99973.84;;;4.60;100.00
31096;BME280;17749;51.962;8.560;2023-03-05T11:00:19;99966.84;;;4.59;100.00
31096;BME280;17749;51.962;8.560;2023-03-05T11:05:38;99965.88;;;4.63;100.00
31096;BME280;17749;51.962;8.560;2023-03-05T11:11:18;99959.81;;;4.58;100.00
31096;BME280;17749;51.962;8.560;2023-03-05T11:14:01;99947.41;;;4.63;100.00
31096;BME280;17749;51.962;8.560;2023-03-05T11:16:32;99954.47;;;4.64;100.00
31096;BME280;17749;51.962;8.560;2023-03-05T11:21:42;99942.16;;;4.63;100.00
31096;BME280;17749;51.962;8.560;2023-03-05T11:24:15;99938.59;;;4.66;100.00
31096;BME280;17749;51.962;8.560;2023-03-05T11:26:49;99942.06;;;4.69;100.00
31096;BME280;17749;51.962;8.560;2023-03-05T11:29:26;99935.09;;;4.65;100.00
31096;BME280;17749;51.962;8.560;2023-03-05T11:31:53;99938.66;;;4.61;100.00
31096;BME280;17749;51.962;8.560;2023-03-05T11:34:25;99927.38;;;4.54;100.00
31096;BME280;17749;51.962;8.560;2023-03-05T11:39:24;99925.59;;;4.55;100.00
31096;BME280;17749;51.962;8.560;2023-03-05T11:41:56;99924.75;;;4.53;100.00
31096;BME280;17749;51.962;8.560;2023-03-05T11:44:29;99917.69;;;4.55;100.00
31096;BME280;17749;51.962;8.560;2023-03-05T11:47:15;99911.41;;;4.62;100.00
31096;BME280;17749;51.962;8.560;2023-03-05T11:49:46;99915.63;;;4.71;100.00
31096;BME280;17749;51.962;8.560;2023-03-05T11:52:29;99915.56;;;4.75;100.00
31096;BME280;17749;51.962;8.560;2023-03-05T11:55:03;99909.47;;;4.72;100.00
31096;BME280;17749;51.962;8.560;2023-03-05T11:57:47;99902.28;;;4.78;100.00
31096;BME280;17749;51.962;8.560;2023-03-05T12:00:21;99898.50;;;4.92;100.00
31096;BME280;17749;51.962;8.560;2023-03-05T12:02:53;99889.47;;;5.03;100.00
31096;BME280;17749;51.962;8.560;2023-03-05T12:05:21;99886.63;;;5.14;100.00
31096;BME280;17749;51.962;8.560;2023-03-05T12:07:52;99886.47;;;5.20;100.00
31096;BME280;17749;51.962;8.560;2023-03-05T12:10:23;99878.38;;;5.28;100.00
31096;BME280;17749;51.962;8.560;2023-03-05T12:15:48;99871.97;;;5.40;100.00
31096;BME280;17749;51.962;8.560;2023-03-05T12:21:23;99866.28;;;5.58;100.00
31096;BME280;17749;51.962;8.560;2023-03-05T12:23:57;99861.53;;;5.71;100.00
31096;BME280;17749;51.962;8.560;2023-03-05T12:34:55;99842.84;;;5.80;100.00
31096;BME280;17749;51.962;8.560;2023-03-05T12:47:41;99821.81;;;6.11;100.00
31096;BME280;17749;51.962;8.560;2023-03-05T13:03:52;99806.69;;;6.17;100.00
31096;BME280;17749;51.962;8.560;2023-03-05T13:06:32;99798.59;;;6.23;100.00
31096;BME280;17749;51.962;8.560;2023-03-05T13:09:23;99798.50;;;6.26;100.00
31096;BME280;17749;51.962;8.560;2023-03-05T13:11:51;99794.44;;;6.12;100.00
31096;BME280;17749;51.962;8.560;2023-03-05T13:16:59;99791.31;;;5.98;100.00
31096;BME280;17749;51.962;8.560;2023-03-05T13:19:28;99786.03;;;5.98;100.00
31096;BME280;17749;51.962;8.560;2023-03-05T13:22:00;99784.03;;;6.06;100.00
31096;BME280;17749;51.962;8.560;2023-03-05T13:24:29;99777.59;;;6.17;100.00
31096;BME280;17749;51.962;8.560;2023-03-05T13:26:56;99782.16;;;6.11;100.00
31096;BME280;17749;51.962;8.560;2023-03-05T13:29:25;99771.50;;;6.14;100.00
31096;BME280;17749;51.962;8.560;2023-03-05T13:31:58;99770.53;;;6.17;100.00
31096;BME280;17749;51.962;8.560;2023-03-05T13:34:32;99762.56;;;6.19;100.00
31096;BME280;17749;51.962;8.560;2023-03-05T13:37:16;99760.72;;;6.21;100.00
31096;BME280;17749;51.962;8.560;2023-03-05T13:39:54;99756.16;;;6.27;100.00
31096;BME280;17749;51.962;8.560;2023-03-05T13:42:30;99750.09;;;6.24;100.00
31096;BME280;17749;51.962;8.560;2023-03-05T13:47:33;99738.56;;;6.26;100.00
31096;BME280;17749;51.962;8.560;2023-03-05T13:50:07;99737.63;;;6.29;100.00
31096;BME280;17749;51.962;8.560;2023-03-05T13:52:47;99740.28;;;6.27;100.00
31096;BME280;17749;51.962;8.560;2023-03-05T13:55:16;99736.88;;;6.24;100.00
31096;BME280;17749;51.962;8.560;2023-03-05T13:57:48;99730.66;;;6.25;100.00
31096;BME280;17749;51.962;8.560;2023-03-05T14:00:33;99731.53;;;6.25;100.00
31096;BME280;17749;51.962;8.560;2023-03-05T14:03:30;99728.75;;;6.30;100.00
31096;BME280;17749;51.962;8.560;2023-03-05T14:06:08;99724.22;;;6.35;100.00
31096;BME280;17749;51.962;8.560;2023-03-05T14:08:36;99721.47;;;6.38;100.00
31096;BME280;17749;51.962;8.560;2023-03-05T14:11:13;99720.50;;;6.41;100.00
31096;BME280;17749;51.962;8.560;2023-03-05T14:13:41;99711.50;;;6.48;100.00
31096;BME280;17749;51.962;8.560;2023-03-05T14:16:11;99714.25;;;6.43;100.00
31096;BME280;17749;51.962;8.560;2023-03-05T14:18:51;99705.47;;;6.43;100.00
31096;BME280;17749;51.962;8.560;2023-03-05T14:21:22;99709.06;;;6.40;100.00
31096;BME280;17749;51.962;8.560;2023-03-05T14:23:52;99698.50;;;6.40;100.00
31096;BME280;17749;51.962;8.560;2023-03-05T14:26:32;99692.38;;;6.38;100.00
31096;BME280;17749;51.962;8.560;2023-03-05T14:31:50;99691.28;;;6.45;100.00
31096;BME280;17749;51.962;8.560;2023-03-05T14:34:21;99680.81;;;6.42;100.00
31096;BME280;17749;51.962;8.560;2023-03-05T14:36:51;99680.97;;;6.36;100.00
31096;BME280;17749;51.962;8.560;2023-03-05T14:39:26;99677.44;;;6.37;100.00
31096;BME280;17749;51.962;8.560;2023-03-05T14:41:53;99669.72;;;6.29;100.00
31096;BME280;17749;51.962;8.560;2023-03-05T14:44:20;99673.44;;;6.22;100.00
31096;BME280;17749;51.962;8.560;2023-03-05T14:46:51;99675.22;;;6.22;100.00
31096;BME280;17749;51.962;8.560;2023-03-05T14:49:18;99661.16;;;6.21;100.00
31096;BME280;17749;51.962;8.560;2023-03-05T14:51:45;99656.53;;;6.28;100.00
31096;BME280;17749;51.962;8.560;2023-03-05T14:54:20;99653.84;;;6.29;100.00
31096;BME280;17749;51.962;8.560;2023-03-05T14:56:49;99652.06;;;6.30;100.00
31096;BME280;17749;51.962;8.560;2023-03-05T14:59:18;99645.19;;;6.24;100.00
31096;BME280;17749;51.962;8.560;2023-03-05T15:01:47;99641.91;;;6.16;100.00
31096;BME280;17749;51.962;8.560;2023-03-05T15:04:16;99639.59;;;6.05;100.00
31096;BME280;17749;51.962;8.560;2023-03-05T15:06:46;99632.50;;;6.06;100.00
31096;BME280;17749;51.962;8.560;2023-03-05T15:09:17;99638.84;;;6.00;100.00
31096;BME280;17749;51.962;8.560;2023-03-05T15:11:47;99632.75;;;5.97;100.00
31096;BME280;17749;51.962;8.560;2023-03-05T15:14:14;99635.38;;;5.98;100.00
31096;BME280;17749;51.962;8.560;2023-03-05T15:16:42;99626.59;;;5.98;100.00
31096;BME280;17749;51.962;8.560;2023-03-05T15:19:12;99630.03;;;6.00;100.00
31096;BME280;17749;51.962;8.560;2023-03-05T15:21:40;99626.38;;;6.05;100.00
31096;BME280;17749;51.962;8.560;2023-03-05T15:24:07;99621.94;;;6.06;100.00
31096;BME280;17749;51.962;8.560;2023-03-05T15:26:37;99620.25;;;6.03;100.00
31096;BME280;17749;51.962;8.560;2023-03-05T15:29:04;99621.34;;;5.96;100.00
31096;BME280;17749;51.962;8.560;2023-03-05T15:31:31;99612.69;;;5.89;100.00
31096;BME280;17749;51.962;8.560;2023-03-05T15:34:05;99614.53;;;5.86;100.00
31096;BME280;17749;51.962;8.560;2023-03-05T15:36:32;99615.47;;;5.85;100.00
31096;BME280;17749;51.962;8.560;2023-03-05T15:38:59;99624.28;;;5.84;100.00
31096;BME280;17749;51.962;8.560;2023-03-05T15:41:26;99613.72;;;5.84;100.00
31096;BME280;17749;51.962;8.560;2023-03-05T15:43:53;99618.09;;;5.85;100.00
31096;BME280;17749;51.962;8.560;2023-03-05T15:46:20;99611.03;;;5.85;100.00
31096;BME280;17749;51.962;8.560;2023-03-05T15:48:47;99612.19;;;5.77;100.00
31096;BME280;17749;51.962;8.560;2023-03-05T15:51:16;99607.09;;;5.69;100.00
31096;BME280;17749;51.962;8.560;2023-03-05T15:53:44;99602.91;;;5.62;100.00
31096;BME280;17749;51.962;8.560;2023-03-05T15:56:18;99611.03;;;5.54;100.00
31096;BME280;17749;51.962;8.560;2023-03-05T15:58:48;99606.59;;;5.55;100.00
31096;BME280;17749;51.962;8.560;2023-03-05T16:01:15;99597.94;;;5.49;100.00
31096;BME280;17749;51.962;8.560;2023-03-05T16:03:45;99598.00;;;5.48;100.00
31096;BME280;17749;51.962;8.560;2023-03-05T16:06:12;99600.66;;;5.48;100.00
31096;BME280;17749;51.962;8.560;2023-03-05T16:08:41;99611.22;;;5.48;100.00
31096;BME280;17749;51.962;8.560;2023-03-05T16:11:10;99595.38;;;5.48;100.00
31096;BME280;17749;51.962;8.560;2023-03-05T16:13:37;99592.72;;;5.48;100.00
31096;BME280;17749;51.962;8.560;2023-03-05T16:16:05;99597.09;;;5.49;100.00
31096;BME280;17749;51.962;8.560;2023-03-05T16:18:34;99596.16;;;5.50;100.00
31096;BME280;17749;51.962;8.560;2023-03-05T16:21:02;99585.59;;;5.50;100.00
31096;BME280;17749;51.962;8.560;2023-03-05T16:23:29;99588.25;;;5.50;100.00
31096;BME280;17749;51.962;8.560;2023-03-05T16:25:56;99591.78;;;5.51;100.00
31096;BME280;17749;51.962;8.560;2023-03-05T16:28:25;99588.31;;;5.47;100.00
31096;BME280;17749;51.962;8.560;2023-03-05T16:30:54;99580.38;;;5.48;100.00
31096;BME280;17749;51.962;8.560;2023-03-05T16:33:22;99577.00;;;5.43;100.00
31096;BME280;17749;51.962;8.560;2023-03-05T16:35:56;99575.31;;;5.41;100.00
31096;BME280;17749;51.962;8.560;2023-03-05T16:38:38;99574.53;;;5.37;100.00
31096;BME280;17749;51.962;8.560;2023-03-05T16:41:05;99572.91;;;5.32;100.00
31096;BME280;17749;51.962;8.560;2023-03-05T16:43:34;99576.56;;;5.27;100.00
31096;BME280;17749;51.962;8.560;2023-03-05T16:46:01;99566.94;;;5.25;100.00
31096;BME280;17749;51.962;8.560;2023-03-05T16:48:29;99565.25;;;5.22;100.00
31096;BME280;17749;51.962;8.560;2023-03-05T16:50:56;99561.09;;;5.14;100.00
31096;BME280;17749;51.962;8.560;2023-03-05T16:53:23;99561.03;;;5.15;100.00
31096;BME280;17749;51.962;8.560;2023-03-05T16:55:50;99561.03;;;5.15;100.00
31096;BME280;17749;51.962;8.560;2023-03-05T16:58:17;99561.03;;;5.15;100.00
31096;BME280;17749;51.962;8.560;2023-03-05T17:00:45;99558.56;;;5.09;100.00
31096;BME280;17749;51.962;8.560;2023-03-05T17:03:12;99558.66;;;5.06;100.00
31096;BME280;17749;51.962;8.560;2023-03-05T17:05:39;99559.44;;;5.08;100.00
31096;BME280;17749;51.962;8.560;2023-03-05T17:08:06;99559.44;;;5.08;100.00
31096;BME280;17749;51.962;8.560;2023-03-05T17:10:33;99555.25;;;5.01;100.00
31096;BME280;17749;51.962;8.560;2023-03-05T17:13:00;99554.44;;;4.99;100.00
31096;BME280;17749;51.962;8.560;2023-03-05T17:15:26;99555.41;;;4.95;100.00
31096;BME280;17749;51.962;8.560;2023-03-05T17:17:53;99554.59;;;4.93;100.00
31096;BME280;17749;51.962;8.560;2023-03-05T17:20:20;99550.28;;;4.90;100.00
31096;BME280;17749;51.962;8.560;2023-03-05T17:22:47;99548.56;;;4.88;100.00
31096;BME280;17749;51.962;8.560;2023-03-05T17:25:14;99544.19;;;4.87;100.00
31096;BME280;17749;51.962;8.560;2023-03-05T17:27:41;99545.28;;;4.79;100.00
31096;BME280;17749;51.962;8.560;2023-03-05T17:30:09;99540.03;;;4.76;100.00
31096;BME280;17749;51.962;8.560;2023-03-05T17:32:36;99540.13;;;4.73;100.00
31096;BME280;17749;51.962;8.560;2023-03-05T17:35:04;99546.31;;;4.72;100.00
31096;BME280;17749;51.962;8.560;2023-03-05T17:37:31;99543.75;;;4.69;100.00
31096;BME280;17749;51.962;8.560;2023-03-05T17:39:58;99542.00;;;4.68;100.00
31096;BME280;17749;51.962;8.560;2023-03-05T17:42:26;99543.91;;;4.63;100.00
31096;BME280;17749;51.962;8.560;2023-03-05T17:44:53;99543.06;;;4.61;100.00
31096;BME280;17749;51.962;8.560;2023-03-05T17:47:20;99537.88;;;4.58;100.00
31096;BME280;17749;51.962;8.560;2023-03-05T17:49:49;99541.41;;;4.57;100.00
31096;BME280;17749;51.962;8.560;2023-03-05T17:52:16;99534.44;;;4.56;100.00
31096;BME280;17749;51.962;8.560;2023-03-05T17:54:44;99544.13;;;4.54;100.00
31096;BME280;17749;51.962;8.560;2023-03-05T17:57:11;99538.94;;;4.51;100.00
31096;BME280;17749;51.962;8.560;2023-03-05T17:59:38;99536.44;;;4.45;100.00
31096;BME280;17749;51.962;8.560;2023-03-05T18:02:05;99533.84;;;4.43;100.00
31096;BME280;17749;51.962;8.560;2023-03-05T18:04:33;99533.84;;;4.43;100.00
31096;BME280;17749;51.962;8.560;2023-03-05T18:07:00;99534.75;;;4.42;100.00
31096;BME280;17749;51.962;8.560;2023-03-05T18:09:27;99527.78;;;4.39;100.00
31096;BME280;17749;51.962;8.560;2023-03-05T18:11:54;99528.69;;;4.38;100.00
31096;BME280;17749;51.962;8.560;2023-03-05T18:14:21;99520.00;;;4.35;100.00
31096;BME280;17749;51.962;8.560;2023-03-05T18:16:48;99526.22;;;4.32;100.00
31096;BME280;17749;51.962;8.560;2023-03-05T18:19:16;99519.16;;;4.33;100.00
31096;BME280;17749;51.962;8.560;2023-03-05T18:21:44;99529.72;;;4.31;100.00
31096;BME280;17749;51.962;8.560;2023-03-05T18:24:11;99528.94;;;4.28;100.00
31096;BME280;17749;51.962;8.560;2023-03-05T18:26:38;99522.81;;;4.27;100.00
31096;BME280;17749;51.962;8.560;2023-03-05T18:29:05;99518.44;;;4.26;100.00
31096;BME280;17749;51.962;8.560;2023-03-05T18:31:32;99519.34;;;4.25;100.00
31096;BME280;17749;51.962;8.560;2023-03-05T18:34:00;99512.41;;;4.21;100.00
31096;BME280;17749;51.962;8.560;2023-03-05T18:36:27;99515.94;;;4.20;100.00
31096;BME280;17749;51.962;8.560;2023-03-05T18:38:54;99504.50;;;4.21;100.00
31096;BME280;17749;51.962;8.560;2023-03-05T18:41:23;99510.75;;;4.17;100.00
31096;BME280;17749;51.962;8.560;2023-03-05T18:43:54;99503.72;;;4.16;100.00
31096;BME280;17749;51.962;8.560;2023-03-05T18:46:21;99501.09;;;4.16;100.00
31096;BME280;17749;51.962;8.560;2023-03-05T18:48:48;99500.28;;;4.14;100.00
31096;BME280;17749;51.962;8.560;2023-03-05T18:51:18;99498.47;;;4.16;100.00
31096;BME280;17749;51.962;8.560;2023-03-05T18:53:45;99496.75;;;4.15;100.00
31096;BME280;17749;51.962;8.560;2023-03-05T18:56:12;99495.03;;;4.14;100.00
31096;BME280;17749;51.962;8.560;2023-03-05T18:58:39;99504.72;;;4.12;100.00
31096;BME280;17749;51.962;8.560;2023-03-05T19:01:07;99499.47;;;4.10;100.00
31096;BME280;17749;51.962;8.560;2023-03-05T19:03:35;99500.41;;;4.08;100.00
31096;BME280;17749;51.962;8.560;2023-03-05T19:06:04;99503.97;;;4.07;100.00
31096;BME280;17749;51.962;8.560;2023-03-05T19:08:32;99492.59;;;4.05;100.00
31096;BME280;17749;51.962;8.560;2023-03-05T19:10:59;99491.75;;;4.03;100.00
31096;BME280;17749;51.962;8.560;2023-03-05T19:13:40;99500.50;;;4.05;100.00
31096;BME280;17749;51.962;8.560;2023-03-05T19:16:20;99497.88;;;4.03;100.00
31096;BME280;17749;51.962;8.560;2023-03-05T19:21:44;99493.44;;;4.05;100.00
31096;BME280;17749;51.962;8.560;2023-03-05T19:24:12;99488.25;;;4.02;100.00
31096;BME280;17749;51.962;8.560;2023-03-05T19:26:40;99486.47;;;4.03;100.00
31096;BME280;17749;51.962;8.560;2023-03-05T19:29:07;99485.69;;;3.99;100.00
31096;BME280;17749;51.962;8.560;2023-03-05T19:31:35;99479.59;;;3.97;100.00
31096;BME280;17749;51.962;8.560;2023-03-05T19:34:02;99481.50;;;3.90;100.00
31096;BME280;17749;51.962;8.560;2023-03-05T19:36:30;99475.22;;;3.96;100.00
31096;BME280;17749;51.962;8.560;2023-03-05T19:38:58;99474.34;;;3.95;100.00
31096;BME280;17749;51.962;8.560;2023-03-05T19:41:25;99463.81;;;3.95;100.00
31096;BME280;17749;51.962;8.560;2023-03-05T19:43:53;99463.81;;;3.95;100.00
31096;BME280;17749;51.962;8.560;2023-03-05T19:46:21;99467.34;;;3.94;100.00
31096;BME280;17749;51.962;8.560;2023-03-05T19:48:48;99460.38;;;3.93;100.00
31096;BME280;17749;51.962;8.560;2023-03-05T19:51:17;99466.44;;;3.95;100.00
31096;BME280;17749;51.962;8.560;2023-03-05T19:53:45;99466.50;;;3.92;100.00
31096;BME280;17749;51.962;8.560;2023-03-05T19:56:15;99456.03;;;3.91;100.00
31096;BME280;17749;51.962;8.560;2023-03-05T19:58:44;99458.69;;;3.89;100.00
31096;BME280;17749;51.962;8.560;2023-03-05T20:01:20;99466.50;;;3.94;100.00
31096;BME280;17749;51.962;8.560;2023-03-05T20:03:50;99458.69;;;3.89;100.00
31096;BME280;17749;51.962;8.560;2023-03-05T20:06:18;99462.25;;;3.88;100.00
31096;BME280;17749;51.962;8.560;2023-03-05T20:08:46;99464.91;;;3.87;100.00
31096;BME280;17749;51.962;8.560;2023-03-05T20:11:15;99451.81;;;3.84;100.00
31096;BME280;17749;51.962;8.560;2023-03-05T20:13:42;99458.91;;;3.80;100.00
31096;BME280;17749;51.962;8.560;2023-03-05T20:16:27;99453.69;;;3.79;100.00
31096;BME280;17749;51.962;8.560;2023-03-05T20:18:57;99460.72;;;3.78;100.00
31096;BME280;17749;51.962;8.560;2023-03-05T20:21:30;99450.25;;;3.75;100.00
31096;BME280;17749;51.962;8.560;2023-03-05T20:24:00;99454.50;;;3.81;100.00
31096;BME280;17749;51.962;8.560;2023-03-05T20:26:28;99447.50;;;3.80;100.00
31096;BME280;17749;51.962;8.560;2023-03-05T20:28:55;99448.44;;;3.77;100.00
31096;BME280;17749;51.962;8.560;2023-03-05T20:31:24;99455.53;;;3.73;100.00
31096;BME280;17749;51.962;8.560;2023-03-05T20:33:52;99443.31;;;3.71;100.00
31096;BME280;17749;51.962;8.560;2023-03-05T20:36:20;99445.91;;;3.72;100.00